createdAt,value
2023-04-23T00:02:19.269Z,100111.72
2023-04-23T00:04:53.107Z,100102.78
2023-04-23T00:07:24.112Z,100109.19
2023-04-23T00:09:56.068Z,100102.88
2023-04-23T00:12:23.357Z,100104.69
2023-04-23T00:14:50.646Z,100102.88
2023-04-23T00:17:17.466Z,100099.38
2023-04-23T00:19:44.264Z,100097.63
2023-04-23T00:22:11.028Z,100103.00
2023-04-23T00:24:38.933Z,100097.63
2023-04-23T00:27:06.277Z,100088.78
2023-04-23T00:29:33.479Z,100087.97
2023-04-23T00:32:00.352Z,100090.66
2023-04-23T00:34:27.237Z,100092.56
2023-04-23T00:36:54.053Z,100094.44
2023-04-23T00:39:22.672Z,100100.78
2023-04-23T00:41:49.856Z,100086.47
2023-04-23T00:44:16.751Z,100090.97
2023-04-23T00:46:44.009Z,100088.38
2023-04-23T00:49:11.391Z,100077.69
2023-04-23T00:51:38.161Z,100085.75
2023-04-23T00:54:05.047Z,100078.63
2023-04-23T00:56:32.126Z,100083.22
2023-04-23T00:58:59.031Z,100081.41
2023-04-23T01:01:25.986Z,100089.53
2023-04-23T01:03:54.186Z,100082.41
2023-04-23T01:06:21.514Z,100088.66
2023-04-23T01:08:48.316Z,100078.94
2023-04-23T01:11:15.797Z,100076.25
2023-04-23T01:13:43.401Z,100071.00
2023-04-23T01:16:11.433Z,100076.47
2023-04-23T01:18:40.828Z,100079.22
2023-04-23T01:21:09.869Z,100072.97
2023-04-23T01:23:36.636Z,100080.25
2023-04-23T01:26:03.578Z,100084.75
2023-04-23T01:28:30.669Z,100080.38
2023-04-23T01:30:59.164Z,100070.66
2023-04-23T01:33:26.699Z,100076.97
2023-04-23T01:35:55.082Z,100078.78
2023-04-23T01:38:23.616Z,100081.56
2023-04-23T01:40:50.388Z,100079.91
2023-04-23T01:43:17.808Z,100080.00
2023-04-23T01:45:44.703Z,100093.53
2023-04-23T01:48:11.511Z,100095.63
2023-04-23T01:50:38.985Z,100102.44
2023-04-23T01:53:05.976Z,100105.03
2023-04-23T01:55:36.765Z,100097.63
2023-04-23T01:58:03.732Z,100092.97
2023-04-23T02:00:30.907Z,100099.63
2023-04-23T02:02:57.767Z,100092.91
2023-04-23T02:05:28.768Z,100102.31
2023-04-23T02:07:56.120Z,100103.69
2023-04-23T02:10:22.916Z,100104.94
2023-04-23T02:12:49.669Z,100101.69
2023-04-23T02:15:16.540Z,100103.84
2023-04-23T02:17:43.648Z,100109.47
2023-04-23T02:20:11.993Z,100112.41
2023-04-23T02:22:41.200Z,100115.31
2023-04-23T02:25:08.915Z,100117.31
2023-04-23T02:27:35.972Z,100113.03
2023-04-23T02:30:08.382Z,100116.84
2023-04-23T02:32:37.154Z,100117.97
2023-04-23T02:35:06.353Z,100123.56
2023-04-23T02:37:33.581Z,100123.66
2023-04-23T02:40:00.341Z,100128.28
2023-04-23T02:42:27.185Z,100127.56
2023-04-23T02:44:54.005Z,100127.63
2023-04-23T02:47:20.785Z,100134.00
2023-04-23T02:49:47.532Z,100133.13
2023-04-23T02:52:14.344Z,100132.25
2023-04-23T02:54:41.214Z,100141.19
2023-04-23T02:57:08.449Z,100126.13
2023-04-23T02:59:35.544Z,100136.94
2023-04-23T03:02:02.389Z,100137.94
2023-04-23T03:04:29.217Z,100137.06
2023-04-23T03:06:56.539Z,100137.06
2023-04-23T03:09:23.327Z,100144.19
2023-04-23T03:11:50.097Z,100146.03
2023-04-23T03:14:16.905Z,100147.91
2023-04-23T03:16:43.695Z,100143.78
2023-04-23T03:19:10.705Z,100144.75
2023-04-23T03:21:37.492Z,100143.13
2023-04-23T03:24:04.393Z,100148.63
2023-04-23T03:26:31.307Z,100140.75
2023-04-23T03:28:58.102Z,100135.53
2023-04-23T03:31:24.945Z,100149.84
2023-04-23T03:33:51.834Z,100147.34
2023-04-23T03:36:18.612Z,100142.06
2023-04-23T03:38:45.354Z,100144.00
2023-04-23T03:41:12.152Z,100146.75
2023-04-23T03:43:38.951Z,100149.47
2023-04-23T03:46:06.490Z,100140.69
2023-04-23T03:48:33.346Z,100138.06
2023-04-23T03:51:00.197Z,100144.41
2023-04-23T03:53:27.061Z,100155.13
2023-04-23T03:55:53.831Z,100147.13
2023-04-23T03:58:20.695Z,100151.59
2023-04-23T04:00:47.476Z,100150.81
2023-04-23T04:03:14.423Z,100144.56
2023-04-23T04:05:41.551Z,100162.44
2023-04-23T04:08:08.689Z,100161.56
2023-04-23T04:10:35.564Z,100166.91
2023-04-23T04:13:02.398Z,100166.91
2023-04-23T04:15:29.209Z,100166.03
2023-04-23T04:17:56.052Z,100170.47
2023-04-23T04:20:22.955Z,100174.00
2023-04-23T04:22:49.859Z,100166.91
2023-04-23T04:25:16.603Z,100173.22
2023-04-23T04:27:43.722Z,100172.47
2023-04-23T04:30:10.962Z,100187.69
2023-04-23T04:32:38.751Z,100187.88
2023-04-23T04:35:09.189Z,100188.94
2023-04-23T04:37:36.296Z,100195.34
2023-04-23T04:40:03.696Z,100193.72
2023-04-23T04:42:30.988Z,100200.06
2023-04-23T04:44:59.488Z,100192.19
2023-04-23T04:47:26.449Z,100199.50
2023-04-23T04:49:57.006Z,100196.09
2023-04-23T04:52:24.601Z,100201.56
2023-04-23T04:54:51.448Z,100212.44
2023-04-23T04:57:19.943Z,100207.22
2023-04-23T04:59:46.799Z,100209.03
2023-04-23T05:02:14.088Z,100210.06
2023-04-23T05:04:41.206Z,100205.72
2023-04-23T05:07:08.318Z,100218.28
2023-04-23T05:09:35.172Z,100220.19
2023-04-23T05:12:02.060Z,100220.25
2023-04-23T05:14:28.941Z,100230.22
2023-04-23T05:16:55.958Z,100227.63
2023-04-23T05:19:23.581Z,100233.06
2023-04-23T05:21:50.469Z,100229.56
2023-04-23T05:24:17.294Z,100234.13
2023-04-23T05:26:44.182Z,100236.88
2023-04-23T05:29:12.953Z,100235.09
2023-04-23T05:31:39.806Z,100226.25
2023-04-23T05:34:06.622Z,100231.69
2023-04-23T05:36:33.466Z,100229.13
2023-04-23T05:39:00.571Z,100225.56
2023-04-23T05:41:27.501Z,100237.16
2023-04-23T05:43:54.253Z,100239.94
2023-04-23T05:46:21.071Z,100240.88
2023-04-23T05:48:47.874Z,100239.97
2023-04-23T05:51:14.631Z,100243.50
2023-04-23T05:53:41.440Z,100248.09
2023-04-23T05:56:08.218Z,100251.78
2023-04-23T05:58:35.160Z,100250.97
2023-04-23T06:01:02.951Z,100255.41
2023-04-23T06:03:30.365Z,100251.94
2023-04-23T06:05:57.351Z,100249.25
2023-04-23T06:08:25.336Z,100251.94
2023-04-23T06:10:52.249Z,100251.94
2023-04-23T06:13:19.029Z,100255.53
2023-04-23T06:15:45.898Z,100256.41
2023-04-23T06:18:13.102Z,100269.72
2023-04-23T06:20:39.956Z,100269.53
2023-04-23T06:23:06.749Z,100273.94
2023-04-23T06:25:33.516Z,100274.88
2023-04-23T06:28:00.322Z,100264.19
2023-04-23T06:30:27.242Z,100268.59
2023-04-23T06:32:54.097Z,100270.41
2023-04-23T06:35:20.917Z,100266.81
2023-04-23T06:37:47.767Z,100270.38
2023-04-23T06:40:15.078Z,100268.56
2023-04-23T06:42:41.818Z,100265.06
2023-04-23T06:45:09.189Z,100257.88
2023-04-23T06:47:36.008Z,100255.16
2023-04-23T06:50:02.884Z,100259.44
2023-04-23T06:52:29.768Z,100262.88
2023-04-23T06:54:56.513Z,100262.78
2023-04-23T06:57:23.290Z,100260.06
2023-04-23T06:59:50.204Z,100255.59
2023-04-23T07:02:17.088Z,100249.28
2023-04-23T07:04:44.539Z,100242.97
2023-04-23T07:07:12.011Z,100256.19
2023-04-23T07:09:38.792Z,100247.16
2023-04-23T07:12:06.486Z,100252.41
2023-04-23T07:14:33.412Z,100235.44
2023-04-23T07:17:00.513Z,100236.19
2023-04-23T07:19:27.405Z,100244.94
2023-04-23T07:21:54.234Z,100243.84
2023-04-23T07:24:21.037Z,100248.09
2023-04-23T07:26:47.854Z,100247.81
2023-04-23T07:29:15.353Z,100251.19
2023-04-23T07:31:42.233Z,100243.06
2023-04-23T07:34:09.822Z,100235.00
2023-04-23T07:36:37.203Z,100228.59
2023-04-23T07:39:05.274Z,100227.56
2023-04-23T07:41:32.829Z,100231.72
2023-04-23T07:43:59.685Z,100233.25
2023-04-23T07:46:26.490Z,100227.63
2023-04-23T07:48:53.478Z,100229.16
2023-04-23T07:51:22.327Z,100233.31
2023-04-23T07:53:51.132Z,100238.09
2023-04-23T07:56:17.939Z,100238.50
2023-04-23T07:58:44.729Z,100233.38
2023-04-23T08:01:11.530Z,100240.03
2023-04-23T08:03:38.457Z,100235.88
2023-04-23T08:06:05.610Z,100225.38
2023-04-23T08:08:32.407Z,100221.25
2023-04-23T08:10:59.309Z,100222.13
2023-04-23T08:13:26.108Z,100214.75
2023-04-23T08:15:52.954Z,100210.72
2023-04-23T08:18:19.757Z,100211.91
2023-04-23T08:20:46.555Z,100196.31
2023-04-23T08:23:13.396Z,100203.16
2023-04-23T08:25:40.359Z,100200.97
2023-04-23T08:28:08.374Z,100194.72
2023-04-23T08:30:35.184Z,100194.25
2023-04-23T08:33:02.236Z,100193.25
2023-04-23T08:35:29.094Z,100180.91
2023-04-23T08:37:56.197Z,100194.84
2023-04-23T08:40:23.084Z,100189.91
2023-04-23T08:43:03.170Z,100190.34
2023-04-23T08:45:30.899Z,100192.56
2023-04-23T08:48:02.189Z,100200.84
2023-04-23T08:50:30.983Z,100201.84
2023-04-23T08:52:58.887Z,100194.81
2023-04-23T08:55:26.144Z,100195.69
2023-04-23T08:57:53.190Z,100217.97
2023-04-23T09:00:23.077Z,100210.72
2023-04-23T09:02:50.613Z,100216.09
2023-04-23T09:05:17.864Z,100209.69
2023-04-23T09:07:44.968Z,100197.84
2023-04-23T09:10:18.256Z,100193.06
2023-04-23T09:12:46.702Z,100187.50
2023-04-23T09:15:13.662Z,100184.69
2023-04-23T09:17:43.901Z,100186.19
2023-04-23T09:20:12.699Z,100189.47
2023-04-23T09:22:55.203Z,100183.66
2023-04-23T09:25:23.889Z,100175.25
2023-04-23T09:27:52.729Z,100171.41
2023-04-23T09:30:20.174Z,100173.88
2023-04-23T09:32:47.597Z,100170.06
2023-04-23T09:35:16.608Z,100169.75
2023-04-23T09:37:49.509Z,100170.41
2023-04-23T09:40:19.906Z,100168.41
2023-04-23T09:42:55.747Z,100164.53
2023-04-23T09:45:25.033Z,100166.28
2023-04-23T09:47:57.881Z,100161.50
2023-04-23T09:50:37.037Z,100156.75
2023-04-23T09:53:05.526Z,100160.09
2023-04-23T09:55:38.870Z,100161.59
2023-04-23T09:58:11.482Z,100162.31
2023-04-23T10:00:40.012Z,100149.44
2023-04-23T10:03:09.489Z,100165.34
2023-04-23T10:08:13.794Z,100161.19
2023-04-23T10:10:56.790Z,100159.91
2023-04-23T10:13:28.459Z,100156.88
2023-04-23T10:15:59.094Z,100152.22
2023-04-23T10:18:33.642Z,100150.97
2023-04-23T10:21:03.264Z,100147.00
2023-04-23T10:23:30.914Z,100137.63
2023-04-23T10:25:59.503Z,100137.28
2023-04-23T10:28:31.874Z,100135.09
2023-04-23T10:30:59.781Z,100137.47
2023-04-23T10:33:31.907Z,100131.03
2023-04-23T10:36:00.894Z,100123.56
2023-04-23T10:38:28.350Z,100137.41
2023-04-23T10:40:58.723Z,100142.34
2023-04-23T10:43:25.708Z,100134.88
2023-04-23T10:45:53.741Z,100124.69
2023-04-23T10:48:21.434Z,100120.97
2023-04-23T10:51:14.624Z,100123.38
2023-04-23T10:53:46.461Z,100115.88
2023-04-23T10:56:13.443Z,100112.06
2023-04-23T10:58:51.261Z,100126.72
2023-04-23T11:01:18.969Z,100131.78
2023-04-23T11:03:47.650Z,100120.53
2023-04-23T11:06:48.677Z,100114.50
2023-04-23T11:09:42.572Z,100113.16
2023-04-23T11:12:34.864Z,100104.63
2023-04-23T11:15:12.710Z,100105.78
2023-04-23T11:17:39.393Z,100105.03
2023-04-23T11:20:14.330Z,100110.72
2023-04-23T11:22:45.860Z,100101.47
2023-04-23T11:25:24.763Z,100110.88
2023-04-23T11:27:53.944Z,100103.13
2023-04-23T11:30:26.390Z,100107.75
2023-04-23T11:32:55.340Z,100096.28
2023-04-23T11:35:28.417Z,100101.66
2023-04-23T11:37:56.340Z,100081.91
2023-04-23T11:40:24.294Z,100085.94
2023-04-23T11:42:54.786Z,100093.09
2023-04-23T11:45:27.968Z,100084.41
2023-04-23T11:47:57.152Z,100083.09
2023-04-23T11:50:33.543Z,100083.88
2023-04-23T11:53:10.374Z,100084.66
2023-04-23T11:55:38.284Z,100076.56
2023-04-23T11:58:05.728Z,100074.66
2023-04-23T12:00:32.521Z,100079.75
2023-04-23T12:03:02.362Z,100085.63
2023-04-23T12:05:40.130Z,100069.50
2023-04-23T12:08:18.929Z,100075.59
2023-04-23T12:10:51.070Z,100065.34
2023-04-23T12:13:22.253Z,100061.72
2023-04-23T12:15:57.773Z,100067.13
2023-04-23T12:18:29.129Z,100053.97
2023-04-23T12:21:09.523Z,100062.22
2023-04-23T12:23:38.237Z,100060.66
2023-04-23T12:26:11.377Z,100042.00
2023-04-23T12:28:55.808Z,100046.53
2023-04-23T12:31:23.837Z,100047.50
2023-04-23T12:34:04.718Z,100037.63
2023-04-23T12:36:32.242Z,100039.00
2023-04-23T12:39:24.923Z,100039.19
2023-04-23T12:42:13.010Z,100034.75
2023-04-23T12:44:40.249Z,100041.69
2023-04-23T12:47:09.564Z,100038.81
2023-04-23T12:49:39.159Z,100030.78
2023-04-23T12:52:07.555Z,100033.78
2023-04-23T12:54:37.370Z,100026.63
2023-04-23T12:57:06.856Z,100023.84
2023-04-23T12:59:34.127Z,100018.53
2023-04-23T13:02:02.286Z,100016.78
2023-04-23T13:04:32.880Z,100023.16
2023-04-23T13:06:59.687Z,100025.13
2023-04-23T13:09:28.278Z,100016.34
2023-04-23T13:11:55.753Z,100016.66
2023-04-23T13:14:22.584Z,100013.38
2023-04-23T13:16:50.056Z,100010.84
2023-04-23T13:19:17.207Z,100021.13
2023-04-23T13:21:45.059Z,100010.72
2023-04-23T13:24:11.989Z,100017.50
2023-04-23T13:26:38.936Z,100010.75
2023-04-23T13:29:06.062Z,100009.50
2023-04-23T13:31:34.107Z,100000.72
2023-04-23T13:34:03.604Z,100003.44
2023-04-23T13:36:30.650Z,100001.47
2023-04-23T13:38:57.493Z,99995.91
2023-04-23T13:41:24.313Z,99995.69
2023-04-23T13:43:51.176Z,99997.44
2023-04-23T13:46:19.555Z,99997.44
2023-04-23T13:48:46.398Z,99992.03
2023-04-23T13:51:26.455Z,99990.28
2023-04-23T13:54:00.089Z,99987.00
2023-04-23T13:56:27.560Z,99991.84
2023-04-23T13:59:02.262Z,99989.53
2023-04-23T14:01:31.992Z,99986.41
2023-04-23T14:03:58.919Z,99978.91
2023-04-23T14:06:25.753Z,99992.03
2023-04-23T14:08:52.578Z,99984.72
2023-04-23T14:11:19.374Z,99993.47
2023-04-23T14:13:46.112Z,99998.41
2023-04-23T14:16:13.201Z,100001.47
2023-04-23T14:18:39.976Z,100002.63
2023-04-23T14:21:07.897Z,100005.38
2023-04-23T14:23:49.292Z,100019.06
2023-04-23T14:26:47.813Z,100014.16
2023-04-23T14:29:49.063Z,100011.22
2023-04-23T14:32:16.008Z,100007.38
2023-04-23T14:34:44.402Z,100012.31
2023-04-23T14:37:11.298Z,100022.81
2023-04-23T14:39:38.123Z,100025.34
2023-04-23T14:42:05.175Z,100023.19
2023-04-23T14:44:31.970Z,100019.28
2023-04-23T14:46:59.094Z,100028.03
2023-04-23T14:49:25.953Z,100009.13
2023-04-23T14:51:57.951Z,100002.69
2023-04-23T14:54:24.898Z,99993.47
2023-04-23T14:56:52.133Z,99980.44
2023-04-23T14:59:19.219Z,99963.81
2023-04-23T15:01:46.105Z,99953.28
2023-04-23T15:04:16.193Z,99952.41
2023-04-23T15:06:43.001Z,99948.78
2023-04-23T15:09:09.805Z,99942.34
2023-04-23T15:11:38.602Z,99930.69
2023-04-23T15:14:19.630Z,99932.44
2023-04-23T15:16:49.307Z,99929.66
2023-04-23T15:19:18.825Z,99914.03
2023-04-23T15:21:46.618Z,99917.16
2023-04-23T15:24:13.704Z,99927.06
2023-04-23T15:26:40.888Z,99911.91
2023-04-23T15:29:10.558Z,99914.50
2023-04-23T15:31:38.450Z,99915.41
2023-04-23T15:34:08.164Z,99918.28
2023-04-23T15:36:38.107Z,99908.84
2023-04-23T15:39:06.575Z,99908.56
2023-04-23T15:41:36.632Z,99911.09
2023-04-23T15:44:04.685Z,99900.19
2023-04-23T15:46:31.505Z,99904.63
2023-04-23T15:48:58.295Z,99898.19
2023-04-23T15:51:25.153Z,99893.53
2023-04-23T15:53:51.911Z,99898.84
2023-04-23T15:56:18.648Z,99883.53
2023-04-23T15:58:45.439Z,99885.38
2023-04-23T16:01:12.339Z,99881.81
2023-04-23T16:03:39.298Z,99885.53
2023-04-23T16:06:06.488Z,99874.00
2023-04-23T16:08:33.342Z,99872.44
2023-04-23T16:11:00.257Z,99871.00
2023-04-23T16:13:29.078Z,99878.50
2023-04-23T16:15:56.099Z,99867.31
2023-04-23T16:18:22.962Z,99861.25
2023-04-23T16:20:49.728Z,99864.09
2023-04-23T16:23:16.487Z,99865.13
2023-04-23T16:25:44.081Z,99851.84
2023-04-23T16:28:13.154Z,99864.47
2023-04-23T16:30:40.125Z,99847.50
2023-04-23T16:33:06.975Z,99857.59
2023-04-23T16:35:33.872Z,99855.84
2023-04-23T16:38:00.722Z,99846.16
2023-04-23T16:40:28.658Z,99856.13
2023-04-23T16:42:55.621Z,99851.72
2023-04-23T16:45:23.174Z,99843.66
2023-04-23T16:47:50.808Z,99842.84
2023-04-23T16:50:17.659Z,99833.13
2023-04-23T16:52:44.532Z,99841.38
2023-04-23T16:55:11.382Z,99827.16
2023-04-23T16:57:38.356Z,99830.81
2023-04-23T17:00:06.130Z,99821.16
2023-04-23T17:02:34.328Z,99827.59
2023-04-23T17:05:01.944Z,99822.31
2023-04-23T17:07:29.056Z,99818.94
2023-04-23T17:09:55.921Z,99822.75
2023-04-23T17:12:22.788Z,99818.63
2023-04-23T17:14:49.641Z,99815.31
2023-04-23T17:17:16.584Z,99805.56
2023-04-23T17:19:43.467Z,99804.97
2023-04-23T17:22:10.666Z,99814.19
2023-04-23T17:24:39.088Z,99800.16
2023-04-23T17:27:06.290Z,99787.00
2023-04-23T17:29:33.099Z,99795.34
2023-04-23T17:32:01.042Z,99796.56
2023-04-23T17:34:27.962Z,99792.41
2023-04-23T17:36:54.794Z,99781.13
2023-04-23T17:39:23.555Z,99781.41
2023-04-23T17:41:50.394Z,99794.19
2023-04-23T17:44:17.226Z,99781.84
2023-04-23T17:46:44.026Z,99771.25
2023-04-23T17:49:10.824Z,99780.44
2023-04-23T17:51:37.845Z,99767.38
2023-04-23T17:54:05.252Z,99763.09
2023-04-23T17:56:32.165Z,99761.53
2023-04-23T17:58:58.920Z,99763.53
2023-04-23T18:01:25.901Z,99760.16
2023-04-23T18:03:53.405Z,99767.44
2023-04-23T18:06:20.504Z,99760.50
2023-04-23T18:08:47.306Z,99758.94
2023-04-23T18:11:14.121Z,99759.06
2023-04-23T18:13:40.966Z,99755.69
2023-04-23T18:16:07.715Z,99750.47
2023-04-23T18:18:34.520Z,99751.59
2023-04-23T18:21:01.937Z,99745.53
2023-04-23T18:23:29.295Z,99756.53
2023-04-23T18:25:56.563Z,99756.78
2023-04-23T18:28:23.338Z,99755.22
2023-04-23T18:30:50.130Z,99756.34
2023-04-23T18:33:36.618Z,99754.84
2023-04-23T18:36:29.201Z,99750.66
2023-04-23T18:38:56.426Z,99752.78
2023-04-23T18:41:23.532Z,99746.75
2023-04-23T18:43:50.392Z,99737.13
2023-04-23T18:46:17.635Z,99742.81
2023-04-23T18:49:06.460Z,99736.81
2023-04-23T18:51:44.792Z,99740.69
2023-04-23T18:54:15.006Z,99733.81
2023-04-23T18:56:42.012Z,99736.81
2023-04-23T18:59:08.783Z,99727.19
2023-04-23T19:01:36.105Z,99730.13
2023-04-23T19:04:03.414Z,99723.25
2023-04-23T19:06:31.135Z,99721.75
2023-04-23T19:08:58.397Z,99725.47
2023-04-23T19:11:27.029Z,99718.53
2023-04-23T19:13:53.811Z,99725.94
2023-04-23T19:16:20.733Z,99722.47
2023-04-23T19:18:47.838Z,99720.88
2023-04-23T19:21:14.689Z,99721.94
2023-04-23T19:23:41.469Z,99718.53
2023-04-23T19:26:08.252Z,99715.03
2023-04-23T19:28:35.144Z,99714.28
2023-04-23T19:31:03.423Z,99709.91
2023-04-23T19:33:30.259Z,99706.34
2023-04-23T19:35:57.054Z,99701.94
2023-04-23T19:38:23.841Z,99700.22
2023-04-23T19:40:51.157Z,99699.34
2023-04-23T19:43:18.842Z,99699.34
2023-04-23T19:45:46.498Z,99703.03
2023-04-23T19:48:13.272Z,99696.72
2023-04-23T19:50:40.440Z,99689.63
2023-04-23T19:53:07.212Z,99687.91
2023-04-23T19:55:34.059Z,99688.84
2023-04-23T19:58:01.164Z,99689.78
2023-04-23T20:00:30.578Z,99687.03
2023-04-23T20:02:58.067Z,99683.47
2023-04-23T20:05:25.603Z,99678.97
2023-04-23T20:07:52.534Z,99677.22
2023-04-23T20:10:19.679Z,99670.06
2023-04-23T20:12:46.510Z,99676.38
2023-04-23T20:15:13.659Z,99659.31
2023-04-23T20:17:40.798Z,99658.50
2023-04-23T20:20:09.349Z,99652.22
2023-04-23T20:22:36.094Z,99656.72
2023-04-23T20:25:03.414Z,99654.91
2023-04-23T20:27:31.016Z,99638.78
2023-04-23T20:29:57.837Z,99633.44
2023-04-23T20:32:24.674Z,99632.47
2023-04-23T20:34:52.542Z,99622.63
2023-04-23T20:37:22.001Z,99626.25
2023-04-23T20:39:49.709Z,99627.13
2023-04-23T20:42:16.547Z,99620.88
2023-04-23T20:44:45.451Z,99614.63
2023-04-23T20:47:13.107Z,99614.72
2023-04-23T20:49:40.371Z,99615.59
2023-04-23T20:52:07.531Z,99615.59
2023-04-23T20:54:34.846Z,99600.34
2023-04-23T20:57:02.876Z,99601.22
2023-04-23T20:59:29.936Z,99593.16
2023-04-23T21:01:58.787Z,99575.31
2023-04-23T21:04:28.253Z,99578.13
2023-04-23T21:06:55.188Z,99583.47
2023-04-23T21:09:22.082Z,99586.22
2023-04-23T21:11:48.982Z,99585.38
2023-04-23T21:14:15.828Z,99580.00
2023-04-23T21:16:42.582Z,99568.38
2023-04-23T21:19:09.373Z,99568.38
2023-04-23T21:21:36.272Z,99557.66
2023-04-23T21:24:03.136Z,99567.44
2023-04-23T21:26:31.219Z,99563.91
2023-04-23T21:28:58.247Z,99593.41
2023-04-23T21:31:39.842Z,99602.34
2023-04-23T21:34:06.708Z,99610.44
2023-04-23T21:36:33.474Z,99614.09
2023-04-23T21:39:00.293Z,99629.47
2023-04-23T21:41:27.086Z,99629.81
2023-04-23T21:43:53.906Z,99621.88
2023-04-23T21:46:23.211Z,99614.91
2023-04-23T21:48:53.300Z,99619.50
2023-04-23T21:51:22.297Z,99627.69
2023-04-23T21:53:49.535Z,99625.13
2023-04-23T21:56:16.843Z,99630.53
2023-04-23T21:58:44.662Z,99627.09
2023-04-23T22:01:11.507Z,99627.22
2023-04-23T22:03:42.319Z,99619.34
2023-04-23T22:06:09.784Z,99624.94
2023-04-23T22:08:40.301Z,99630.53
2023-04-23T22:11:10.931Z,99627.19
2023-04-23T22:13:39.151Z,99628.38
2023-04-23T22:16:13.363Z,99621.44
2023-04-23T22:18:47.682Z,99622.59
2023-04-23T22:21:14.560Z,99609.50
2023-04-23T22:23:41.331Z,99599.88
2023-04-23T22:26:08.112Z,99596.41
2023-04-23T22:28:34.863Z,99585.91
2023-04-23T22:31:01.668Z,99584.16
2023-04-23T22:33:29.292Z,99590.56
2023-04-23T22:35:56.541Z,99589.69
2023-04-23T22:38:23.338Z,99590.72
2023-04-23T22:40:50.108Z,99586.28
2023-04-23T22:43:16.878Z,99578.41
2023-04-23T22:45:43.680Z,99580.28
2023-04-23T22:48:10.651Z,99580.28
2023-04-23T22:50:39.913Z,99574.94
2023-04-23T22:53:06.820Z,99566.00
2023-04-23T22:55:33.863Z,99580.34
2023-04-23T22:58:00.843Z,99579.56
2023-04-23T23:00:27.905Z,99574.28
2023-04-23T23:02:54.778Z,99572.59
2023-04-23T23:05:21.674Z,99566.44
2023-04-23T23:07:48.416Z,99557.69
2023-04-23T23:10:15.494Z,99556.97
2023-04-23T23:12:42.246Z,99561.59
2023-04-23T23:15:09.419Z,99561.72
2023-04-23T23:17:36.259Z,99565.44
2023-04-23T23:20:04.353Z,99570.84
2023-04-23T23:22:31.136Z,99569.28
2023-04-23T23:24:57.915Z,99567.53
2023-04-23T23:27:24.689Z,99573.91
2023-04-23T23:29:51.457Z,99566.03
2023-04-23T23:32:18.372Z,99557.19
2023-04-23T23:34:45.387Z,99557.34
2023-04-23T23:37:12.137Z,99549.44
2023-04-23T23:39:39.059Z,99561.16
2023-04-23T23:42:05.906Z,99554.22
2023-04-23T23:44:32.770Z,99554.34
2023-04-23T23:47:00.321Z,99554.50
2023-04-23T23:49:27.217Z,99547.56
2023-04-23T23:51:54.038Z,99544.09
2023-04-23T23:54:20.856Z,99546.13
2023-04-23T23:56:47.727Z,99546.19
2023-04-23T23:59:14.535Z,99549.06
